Time;durP1;ratioP1;P1;durP2;ratioP2;P2;SDS_P1;SDS_P2;PMS_P1;PMS_P2;Temp;Humidity;BMP_temperature;BMP_pressure;BME280_temperature;BME280_humidity;BME280_pressure;Samples;Min_cycle;Max_cycle;Signal;HPM_P1;HPM_P2
2021/10/24 00:00:09;;;;;;;5.10;4.57;;;17.10;96.70;;;;;;5039965;28;20099;-75
2021/10/24 00:02:41;;;;;;;5.20;3.80;;;17.10;96.70;;;;;;5059181;28;20079;-74
2021/10/24 00:05:09;;;;;;;5.57;3.75;;;17.20;96.70;;;;;;5055386;28;20139;-74
2021/10/24 00:07:37;;;;;;;5.15;3.67;;;17.20;96.70;;;;;;5039964;28;20789;-75
2021/10/24 00:10:06;;;;;;;4.03;3.38;;;17.20;96.70;;;;;;5057976;28;20045;-74
2021/10/24 00:12:34;;;;;;;4.72;3.40;;;17.20;96.70;;;;;;5059339;28;20508;-76
2021/10/24 00:15:02;;;;;;;4.93;3.65;;;17.20;96.70;;;;;;5056169;28;20091;-76
2021/10/24 00:17:30;;;;;;;4.13;3.42;;;17.20;96.70;;;;;;5058215;28;20143;-76
2021/10/24 00:20:00;;;;;;;4.18;3.50;;;17.20;96.70;;;;;;5057861;28;20072;-76
2021/10/24 00:22:28;;;;;;;3.40;3.10;;;17.20;96.70;;;;;;5058495;28;20138;-76
2021/10/24 00:24:56;;;;;;;3.78;3.22;;;17.10;96.70;;;;;;5058744;28;20081;-76
2021/10/24 00:27:24;;;;;;;3.70;3.40;;;17.20;96.70;;;;;;5057300;28;20053;-76
2021/10/24 00:29:52;;;;;;;4.03;3.08;;;17.20;96.70;;;;;;5054957;28;20568;-76
2021/10/24 00:32:20;;;;;;;2.83;2.47;;;17.10;96.70;;;;;;5059879;28;20047;-76
2021/10/24 00:34:49;;;;;;;3.38;2.72;;;17.10;96.70;;;;;;5045683;28;20048;-75
2021/10/24 00:37:18;;;;;;;4.13;2.63;;;17.10;96.70;;;;;;5045018;28;20957;-76
2021/10/24 00:39:47;;;;;;;4.18;2.60;;;17.10;96.70;;;;;;5042868;28;20048;-76
2021/10/24 00:42:27;;;;;;;3.17;2.50;;;17.10;96.70;;;;;;5046821;28;20044;-76
2021/10/24 00:44:56;;;;;;;4.65;2.38;;;17.10;96.70;;;;;;5062879;28;20124;-76
2021/10/24 00:47:24;;;;;;;2.92;2.50;;;17.10;96.70;;;;;;5074177;28;20048;-76
2021/10/24 00:49:53;;;;;;;3.75;2.00;;;17.10;96.70;;;;;;5062250;28;20047;-76
2021/10/24 00:52:23;;;;;;;3.95;2.53;;;17.10;96.70;;;;;;5059049;28;20117;-76
2021/10/24 00:54:52;;;;;;;2.72;2.20;;;17.10;96.70;;;;;;5046600;28;20109;-76
2021/10/24 00:57:20;;;;;;;4.32;2.30;;;17.10;96.70;;;;;;5044545;28;20052;-76
2021/10/24 00:59:49;;;;;;;3.90;2.20;;;17.10;96.70;;;;;;5062166;28;20052;-76
2021/10/24 01:02:17;;;;;;;2.95;2.08;;;17.00;96.70;;;;;;5061387;28;20052;-76
2021/10/24 01:04:46;;;;;;;2.50;1.90;;;17.00;96.70;;;;;;5061495;28;20046;-76
2021/10/24 01:07:17;;;;;;;4.20;2.17;;;17.00;96.70;;;;;;5059150;28;20144;-76
2021/10/24 01:09:47;;;;;;;3.17;2.20;;;17.00;96.70;;;;;;5068753;28;20437;-76
2021/10/24 01:12:16;;;;;;;2.90;2.15;;;17.00;96.70;;;;;;5029085;28;20052;-76
2021/10/24 01:14:44;;;;;;;4.13;2.40;;;16.90;96.70;;;;;;5058111;28;20052;-76
2021/10/24 01:17:13;;;;;;;4.22;2.40;;;17.00;96.70;;;;;;5060055;28;20037;-75
2021/10/24 01:19:41;;;;;;;3.03;2.45;;;17.00;96.70;;;;;;5045471;28;20044;-77
2021/10/24 01:22:11;;;;;;;2.45;2.13;;;17.00;96.70;;;;;;5051419;28;20486;-76
2021/10/24 01:24:40;;;;;;;4.63;2.45;;;17.00;96.70;;;;;;5059910;28;20553;-76
2021/10/24 01:27:08;;;;;;;3.55;2.58;;;17.00;96.70;;;;;;5058385;28;20513;-76
2021/10/24 01:29:36;;;;;;;3.95;2.47;;;17.00;96.70;;;;;;5061997;28;20579;-76
2021/10/24 01:32:05;;;;;;;3.67;2.25;;;17.00;96.70;;;;;;5060729;28;20137;-76
2021/10/24 01:34:44;;;;;;;3.58;2.38;;;17.00;96.70;;;;;;5060172;28;20043;-76
2021/10/24 01:37:14;;;;;;;4.20;2.33;;;17.00;96.70;;;;;;5047261;28;20135;-78
2021/10/24 01:39:43;;;;;;;2.45;2.25;;;17.00;96.70;;;;;;5062935;28;20725;-78
2021/10/24 01:42:11;;;;;;;3.42;2.50;;;17.00;96.70;;;;;;5061456;28;20045;-78
2021/10/24 01:44:40;;;;;;;3.25;2.50;;;17.00;96.70;;;;;;5061163;28;20052;-77
2021/10/24 01:47:08;;;;;;;7.60;2.42;;;17.00;96.70;;;;;;5061120;28;20040;-78
2021/10/24 01:49:38;;;;;;;3.10;2.17;;;17.00;96.70;;;;;;5043962;28;20121;-78
2021/10/24 01:52:06;;;;;;;3.42;2.10;;;17.00;96.70;;;;;;5062251;28;20582;-78
2021/10/24 01:54:36;;;;;;;3.65;2.45;;;17.00;96.70;;;;;;5059718;28;20510;-76
2021/10/24 01:57:06;;;;;;;3.17;2.38;;;17.00;96.70;;;;;;5061219;28;20052;-75
2021/10/24 01:59:35;;;;;;;5.50;2.40;;;17.00;96.70;;;;;;5061636;28;20072;-75
2021/10/24 02:02:32;;;;;;;3.63;2.67;;;17.00;96.70;;;;;;5047339;28;20048;-76
2021/10/24 02:05:24;;;;;;;5.63;2.88;;;17.00;96.70;;;;;;5049651;28;20068;-76
2021/10/24 02:07:52;;;;;;;4.18;3.03;;;17.10;96.70;;;;;;5072513;28;20090;-75
2021/10/24 02:10:22;;;;;;;4.18;2.72;;;17.10;96.70;;;;;;5060239;28;20658;-76
2021/10/24 02:12:51;;;;;;;4.85;2.90;;;17.10;96.70;;;;;;5043786;28;20131;-76
2021/10/24 02:15:23;;;;;;;4.20;2.70;;;17.10;96.70;;;;;;5059614;28;20118;-75
2021/10/24 02:17:51;;;;;;;5.72;2.53;;;17.10;96.70;;;;;;5060381;28;20417;-76
2021/10/24 02:20:24;;;;;;;3.47;2.60;;;17.10;96.70;;;;;;5042660;28;20051;-75
2021/10/24 02:22:53;;;;;;;3.83;2.80;;;17.10;96.70;;;;;;5061558;28;20923;-75
2021/10/24 02:25:23;;;;;;;4.47;2.60;;;17.10;96.70;;;;;;5059050;28;20509;-76
2021/10/24 02:27:52;;;;;;;4.47;2.75;;;17.10;96.70;;;;;;5057696;28;20044;-75
2021/10/24 02:30:20;;;;;;;3.42;2.72;;;17.00;96.70;;;;;;5041230;28;20151;-75
2021/10/24 02:32:49;;;;;;;4.78;2.50;;;17.00;96.70;;;;;;5058884;28;20048;-75
2021/10/24 02:35:37;;;;;;;6.15;3.38;;;17.10;96.70;;;;;;5059808;28;20047;-75
2021/10/24 02:38:05;;;;;;;2.95;2.63;;;17.10;96.70;;;;;;5041689;28;20051;-75
2021/10/24 02:40:35;;;;;;;4.55;3.00;;;17.00;96.70;;;;;;5060270;28;20040;-76
2021/10/24 02:43:05;;;;;;;3.75;2.60;;;17.00;96.70;;;;;;5059181;28;20098;-75
2021/10/24 02:45:36;;;;;;;2.80;2.55;;;17.00;96.70;;;;;;5060040;28;20059;-76
2021/10/24 02:48:05;;;;;;;4.07;3.10;;;17.00;96.70;;;;;;5052804;28;20064;-76
2021/10/24 02:50:34;;;;;;;3.88;2.97;;;17.00;96.70;;;;;;5059466;28;20049;-76
2021/10/24 02:53:03;;;;;;;3.40;2.40;;;17.00;96.70;;;;;;5055145;28;20154;-76
2021/10/24 02:55:31;;;;;;;4.45;2.47;;;17.00;96.70;;;;;;5058116;28;20413;-75
2021/10/24 02:58:01;;;;;;;3.33;2.55;;;17.00;96.70;;;;;;5059262;28;20040;-76
2021/10/24 03:00:30;;;;;;;4.15;2.60;;;17.00;96.70;;;;;;5059098;28;20344;-75
2021/10/24 03:02:58;;;;;;;2.65;2.17;;;17.00;96.70;;;;;;5055940;28;20073;-75
2021/10/24 03:05:27;;;;;;;3.05;2.33;;;17.00;96.70;;;;;;5059317;28;20055;-75
2021/10/24 03:07:55;;;;;;;2.90;2.22;;;17.00;96.70;;;;;;5059537;28;20113;-75
2021/10/24 03:10:23;;;;;;;4.63;2.63;;;17.00;96.70;;;;;;5054339;28;20052;-76
2021/10/24 03:12:51;;;;;;;3.75;2.17;;;17.00;96.70;;;;;;5056583;28;20047;-75
2021/10/24 03:15:21;;;;;;;3.95;2.53;;;17.00;96.70;;;;;;5058703;28;20052;-77
2021/10/24 03:17:49;;;;;;;3.47;2.30;;;17.00;96.70;;;;;;5066301;28;20054;-77
2021/10/24 03:20:17;;;;;;;2.53;2.00;;;17.00;96.70;;;;;;5059247;28;20044;-77
2021/10/24 03:22:47;;;;;;;2.90;2.38;;;17.00;96.70;;;;;;5059955;28;20151;-77
2021/10/24 03:25:15;;;;;;;2.83;1.80;;;17.00;96.70;;;;;;5061610;28;20098;-77
2021/10/24 03:27:43;;;;;;;4.78;2.65;;;17.00;96.70;;;;;;5057508;28;20052;-77
2021/10/24 03:30:15;;;;;;;4.05;2.03;;;17.00;96.70;;;;;;5037209;28;20041;-75
2021/10/24 03:32:51;;;;;;;3.90;2.17;;;17.00;96.70;;;;;;5049459;28;20502;-74
2021/10/24 03:35:20;;;;;;;3.30;2.15;;;17.00;96.70;;;;;;5043258;28;20063;-75
2021/10/24 03:37:48;;;;;;;4.05;2.03;;;17.00;96.70;;;;;;5039749;28;20094;-75
2021/10/24 03:40:17;;;;;;;4.30;2.00;;;17.00;96.70;;;;;;5042326;28;20372;-74
2021/10/24 03:42:47;;;;;;;4.28;2.22;;;17.00;96.70;;;;;;5054504;28;20051;-75
2021/10/24 03:45:15;;;;;;;2.80;2.05;;;17.00;96.70;;;;;;5058023;28;20453;-74
2021/10/24 03:47:44;;;;;;;3.35;2.10;;;16.90;96.70;;;;;;5059153;28;20052;-75
2021/10/24 03:50:14;;;;;;;4.70;2.30;;;16.90;96.70;;;;;;5056727;28;20127;-74
2021/10/24 03:52:42;;;;;;;3.15;2.22;;;16.90;96.70;;;;;;5067357;28;20176;-75
2021/10/24 03:55:13;;;;;;;3.25;2.10;;;16.90;96.70;;;;;;5055378;28;20047;-76
2021/10/24 03:57:43;;;;;;;3.67;2.10;;;16.90;96.70;;;;;;5058892;28;20068;-75
2021/10/24 04:00:13;;;;;;;2.63;1.92;;;16.90;96.70;;;;;;5058115;28;20036;-75
2021/10/24 04:02:52;;;;;;;3.42;1.90;;;16.90;96.70;;;;;;5054081;28;20140;-75
2021/10/24 04:05:24;;;;;;;5.30;2.15;;;16.90;96.70;;;;;;5057817;28;20044;-74
2021/10/24 04:07:53;;;;;;;3.53;2.10;;;16.90;96.70;;;;;;5060608;28;20051;-74
2021/10/24 04:10:22;;;;;;;2.63;1.80;;;16.90;96.70;;;;;;5062685;28;20049;-75
2021/10/24 04:12:51;;;;;;;3.47;1.95;;;16.90;96.70;;;;;;5061951;28;20040;-74
2021/10/24 04:15:21;;;;;;;3.65;1.73;;;16.80;96.70;;;;;;5060997;28;20044;-74
2021/10/24 04:17:49;;;;;;;4.22;2.00;;;16.80;96.70;;;;;;5062929;28;20043;-74
2021/10/24 04:20:19;;;;;;;2.45;1.58;;;16.80;96.70;;;;;;5061888;28;20037;-73
2021/10/24 04:22:54;;;;;;;2.60;1.55;;;16.80;96.70;;;;;;5060764;28;20041;-74
2021/10/24 04:25:25;;;;;;;3.35;1.65;;;16.80;96.70;;;;;;5062380;28;20036;-74
2021/10/24 04:27:56;;;;;;;1.67;1.30;;;16.80;96.70;;;;;;5044150;28;20040;-73
2021/10/24 04:30:24;;;;;;;2.10;1.48;;;16.80;96.70;;;;;;5045441;28;20536;-75
2021/10/24 04:32:53;;;;;;;4.05;1.50;;;16.80;96.70;;;;;;5062102;28;20516;-74
2021/10/24 04:35:22;;;;;;;2.97;1.60;;;16.70;96.70;;;;;;5059818;28;20075;-74
2021/10/24 04:37:50;;;;;;;2.72;1.50;;;16.70;96.70;;;;;;5054456;28;20037;-74
2021/10/24 04:40:20;;;;;;;2.60;1.40;;;16.80;96.70;;;;;;5057182;28;20449;-75
2021/10/24 04:42:54;;;;;;;2.97;1.70;;;16.70;96.70;;;;;;5061830;28;20102;-74
2021/10/24 04:45:23;;;;;;;3.15;1.63;;;16.70;96.70;;;;;;5061175;28;20125;-74
2021/10/24 04:47:52;;;;;;;1.90;1.30;;;16.70;96.70;;;;;;5045307;28;20075;-74
2021/10/24 04:50:21;;;;;;;3.17;1.38;;;16.70;96.70;;;;;;5043889;28;20113;-74
2021/10/24 04:52:51;;;;;;;2.95;1.55;;;16.70;96.70;;;;;;5061610;28;20444;-74
2021/10/24 04:55:21;;;;;;;2.28;1.52;;;16.70;96.70;;;;;;5044907;28;20040;-74
2021/10/24 04:57:49;;;;;;;1.52;1.20;;;16.60;96.70;;;;;;5056657;28;20060;-74
2021/10/24 05:00:17;;;;;;;2.28;1.30;;;16.60;96.70;;;;;;5061644;28;20044;-75
2021/10/24 05:02:46;;;;;;;2.53;1.30;;;16.60;96.70;;;;;;5061797;28;20259;-74
2021/10/24 05:05:14;;;;;;;2.17;1.40;;;16.60;96.70;;;;;;5061876;28;20045;-75
2021/10/24 05:07:43;;;;;;;2.28;1.45;;;16.70;96.70;;;;;;5043356;28;20068;-75
2021/10/24 05:10:12;;;;;;;2.65;1.35;;;16.60;96.70;;;;;;5043390;28;20029;-74
2021/10/24 05:12:43;;;;;;;3.15;1.50;;;16.60;96.70;;;;;;5044064;28;20080;-74
2021/10/24 05:15:12;;;;;;;2.10;1.40;;;16.60;96.70;;;;;;5061370;28;20044;-75
2021/10/24 05:17:40;;;;;;;4.18;1.30;;;16.60;96.70;;;;;;5036429;28;20044;-74
2021/10/24 05:20:11;;;;;;;1.42;1.15;;;16.60;96.70;;;;;;5061952;28;20052;-74
2021/10/24 05:22:40;;;;;;;3.63;1.58;;;16.50;96.70;;;;;;5060361;28;20079;-74
2021/10/24 05:25:09;;;;;;;2.58;1.30;;;16.50;96.70;;;;;;5059473;28;20044;-75
2021/10/24 05:27:40;;;;;;;2.25;1.58;;;16.50;96.70;;;;;;5061906;28;20156;-76
2021/10/24 05:30:11;;;;;;;2.45;1.40;;;16.50;96.70;;;;;;5043588;28;20391;-76
2021/10/24 05:32:39;;;;;;;2.35;1.35;;;16.50;96.70;;;;;;5056288;28;20045;-75
2021/10/24 05:35:08;;;;;;;2.03;1.27;;;16.50;96.70;;;;;;5055456;28;20076;-75
2021/10/24 05:37:37;;;;;;;5.38;1.30;;;16.60;96.70;;;;;;5059581;28;20064;-75
2021/10/24 05:40:07;;;;;;;3.58;1.52;;;16.50;96.70;;;;;;5055594;28;20519;-76
2021/10/24 05:42:50;;;;;;;3.45;1.48;;;16.40;96.70;;;;;;5077467;28;20048;-76
2021/10/24 05:45:21;;;;;;;1.58;1.30;;;16.40;96.70;;;;;;5043767;28;20060;-76
2021/10/24 05:47:49;;;;;;;1.85;1.42;;;16.50;96.70;;;;;;5059167;28;20057;-75
2021/10/24 05:50:27;;;;;;;3.38;1.60;;;16.40;96.70;;;;;;5044237;28;20135;-75
2021/10/24 05:52:57;;;;;;;3.95;1.50;;;16.50;96.70;;;;;;5059069;28;20040;-76
2021/10/24 05:55:25;;;;;;;1.98;1.40;;;16.50;96.70;;;;;;5044176;28;20135;-76
2021/10/24 05:57:54;;;;;;;3.50;1.55;;;16.50;96.70;;;;;;5043277;28;20674;-76
2021/10/24 06:00:39;;;;;;;2.80;1.70;;;16.50;96.70;;;;;;5045439;28;20041;-76
2021/10/24 06:03:26;;;;;;;1.92;1.52;;;16.50;96.70;;;;;;5060476;28;20255;-76
2021/10/24 06:06:17;;;;;;;2.30;1.77;;;16.50;96.70;;;;;;5050944;28;20563;-76
2021/10/24 06:08:45;;;;;;;4.47;1.90;;;16.40;96.70;;;;;;5055775;28;20040;-75
2021/10/24 06:11:19;;;;;;;4.25;1.95;;;16.50;96.70;;;;;;5058318;28;20037;-76
2021/10/24 06:13:48;;;;;;;5.50;1.90;;;16.50;96.70;;;;;;5070536;28;20118;-76
2021/10/24 06:16:19;;;;;;;3.95;2.03;;;16.50;96.70;;;;;;5060497;28;20048;-76
2021/10/24 06:18:48;;;;;;;4.05;2.08;;;16.50;96.70;;;;;;5059477;28;20134;-76
2021/10/24 06:21:16;;;;;;;3.60;2.10;;;16.50;96.70;;;;;;5060665;28;20122;-75
2021/10/24 06:23:44;;;;;;;2.85;1.70;;;16.60;96.70;;;;;;5057388;28;20056;-76
2021/10/24 06:26:13;;;;;;;2.92;2.08;;;16.60;96.70;;;;;;5059562;28;20514;-76
2021/10/24 06:28:41;;;;;;;3.05;2.17;;;16.60;96.70;;;;;;5054281;28;20491;-75
2021/10/24 06:31:10;;;;;;;3.47;1.65;;;16.60;96.70;;;;;;5070654;28;20135;-76
2021/10/24 06:34:09;;;;;;;2.63;1.95;;;16.60;96.70;;;;;;5015298;28;20569;-75
2021/10/24 06:37:17;;;;;;;5.05;2.08;;;16.60;96.70;;;;;;4990820;28;20061;-76
2021/10/24 06:39:47;;;;;;;4.15;2.05;;;16.70;96.70;;;;;;5029030;28;20409;-75
2021/10/24 06:42:15;;;;;;;3.53;2.10;;;16.70;96.70;;;;;;5057571;28;20039;-76
2021/10/24 06:44:47;;;;;;;6.07;2.35;;;16.80;96.70;;;;;;5055844;28;20080;-76
2021/10/24 06:47:33;;;;;;;;;;;16.80;96.70;;;;;;5058741;28;20094;-76
2021/10/24 06:50:21;;;;;;;3.45;2.13;;;16.80;96.70;;;;;;5061172;28;19931;-76
2021/10/24 06:52:55;;;;;;;3.20;1.93;;;16.80;96.70;;;;;;5060374;28;20106;-76
2021/10/24 06:55:33;;;;;;;2.95;2.20;;;16.90;96.70;;;;;;5060597;28;20294;-76
2021/10/24 06:58:19;;;;;;;4.28;2.10;;;16.90;96.70;;;;;;5059216;28;20106;-75
2021/10/24 07:01:17;;;;;;;4.22;1.73;;;16.90;96.70;;;;;;4983310;28;20153;-76
2021/10/24 07:04:09;;;;;;;2.63;1.90;;;17.00;96.70;;;;;;5058959;28;20113;-76
2021/10/24 07:06:50;;;;;;;3.38;1.95;;;17.00;96.70;;;;;;5043381;28;20044;-74
2021/10/24 07:09:23;;;;;;;3.08;2.00;;;17.00;96.70;;;;;;5056104;28;20408;-76
2021/10/24 07:12:10;;;;;;;2.58;1.75;;;17.10;96.70;;;;;;5057740;28;20040;-76
2021/10/24 07:14:39;;;;;;;4.90;2.15;;;17.10;96.70;;;;;;5043073;28;20084;-76
2021/10/24 07:17:07;;;;;;;4.13;1.73;;;17.20;96.70;;;;;;5058635;28;20056;-76
2021/10/24 07:19:36;;;;;;;4.15;2.30;;;17.20;96.70;;;;;;5042710;28;20044;-76
2021/10/24 07:22:13;;;;;;;2.70;1.70;;;17.20;96.70;;;;;;5057921;28;20133;-77
2021/10/24 07:25:00;;;;;;;2.50;1.55;;;17.30;96.70;;;;;;5057545;28;20525;-76
2021/10/24 07:27:42;;;;;;;2.75;1.50;;;17.30;96.70;;;;;;5059379;28;20060;-76
2021/10/24 07:30:12;;;;;;;3.35;1.77;;;17.40;96.70;;;;;;5043568;28;20095;-76
2021/10/24 07:32:52;;;;;;;2.42;1.80;;;17.40;96.70;;;;;;5058238;28;20044;-76
2021/10/24 07:35:40;;;;;;;1.92;1.60;;;17.50;96.70;;;;;;5056224;28;20394;-76
2021/10/24 07:38:14;;;;;;;5.25;1.73;;;17.60;96.70;;;;;;5039173;28;20124;-78
2021/10/24 07:40:46;;;;;;;2.30;1.50;;;17.60;96.70;;;;;;5053141;28;20052;-76
2021/10/24 07:43:18;;;;;;;2.63;1.33;;;17.60;96.70;;;;;;5059265;28;20060;-77
2021/10/24 07:45:50;;;;;;;1.75;1.25;;;17.70;96.70;;;;;;5054189;28;20072;-76
2021/10/24 07:48:23;;;;;;;3.22;1.30;;;17.80;96.70;;;;;;5054943;28;20047;-76
2021/10/24 07:50:51;;;;;;;1.50;1.00;;;17.80;96.70;;;;;;5056564;28;20041;-76
2021/10/24 07:53:30;;;;;;;2.03;1.00;;;17.80;96.70;;;;;;5049965;28;20701;-77
2021/10/24 07:56:04;;;;;;;3.67;1.15;;;17.90;96.70;;;;;;5059829;28;20041;-77
2021/10/24 07:58:59;;;;;;;2.75;1.20;;;17.90;96.70;;;;;;5044065;28;20499;-77
2021/10/24 08:01:28;;;;;;;1.17;0.85;;;17.90;96.70;;;;;;5051895;28;20678;-77
2021/10/24 08:03:58;;;;;;;1.45;1.00;;;18.00;96.70;;;;;;5040925;28;20044;-77
2021/10/24 08:06:35;;;;;;;1.53;0.90;;;18.00;96.70;;;;;;5074067;28;20056;-76
2021/10/24 08:09:06;;;;;;;2.83;1.13;;;18.10;96.70;;;;;;5042573;28;20542;-77
2021/10/24 08:11:39;;;;;;;3.15;0.95;;;18.10;96.70;;;;;;5060288;28;20048;-76
2021/10/24 08:14:08;;;;;;;7.45;2.40;;;18.20;96.70;;;;;;5041190;28;20052;-77
2021/10/24 08:16:38;;;;;;;7.05;1.60;;;18.20;96.70;;;;;;5039054;28;20660;-77
2021/10/24 08:19:16;;;;;;;1.50;1.10;;;18.30;96.70;;;;;;5043108;28;20490;-77
2021/10/24 08:21:50;;;;;;;6.07;1.88;;;18.20;96.70;;;;;;5039499;28;20049;-76
2021/10/24 08:24:21;;;;;;;7.20;2.05;;;18.20;96.70;;;;;;5040633;28;20136;-76
2021/10/24 08:26:58;;;;;;;3.55;1.55;;;18.30;96.70;;;;;;5043096;28;20048;-75
2021/10/24 08:29:26;;;;;;;2.38;1.35;;;18.30;96.70;;;;;;5057675;28;20142;-76
2021/10/24 08:32:29;;;;;;;4.13;1.30;;;18.40;96.70;;;;;;4991623;28;20062;-76
2021/10/24 08:34:58;;;;;;;1.83;0.60;;;18.40;96.70;;;;;;5033521;28;20048;-77
2021/10/24 08:37:26;;;;;;;1.77;0.82;;;18.50;96.70;;;;;;5051270;28;20053;-75
2021/10/24 08:39:56;;;;;;;1.52;0.73;;;18.60;96.70;;;;;;5053644;28;20048;-76
2021/10/24 08:42:27;;;;;;;4.25;1.23;;;18.60;96.70;;;;;;5055409;28;20040;-76
2021/10/24 08:44:56;;;;;;;2.67;1.00;;;18.70;96.70;;;;;;5060548;28;20047;-76
2021/10/24 08:47:24;;;;;;;1.60;0.88;;;18.70;96.70;;;;;;5058071;28;20470;-75
2021/10/24 08:49:52;;;;;;;2.00;1.10;;;18.70;96.70;;;;;;5044691;28;20048;-75
2021/10/24 08:52:21;;;;;;;2.53;1.00;;;18.70;96.70;;;;;;5062672;28;20076;-75
2021/10/24 08:54:53;;;;;;;1.55;0.73;;;18.80;96.70;;;;;;5061459;28;20425;-75
2021/10/24 08:57:28;;;;;;;0.85;0.50;;;18.80;96.70;;;;;;5061385;28;20068;-77
2021/10/24 08:59:57;;;;;;;2.60;0.60;;;18.80;96.70;;;;;;5062798;28;20052;-76
2021/10/24 09:02:46;;;;;;;2.08;0.90;;;18.90;96.70;;;;;;5044896;28;20075;-75
2021/10/24 09:05:26;;;;;;;1.30;0.65;;;19.00;96.70;;;;;;5061094;28;20040;-76
2021/10/24 09:07:55;;;;;;;3.38;0.70;;;19.10;96.70;;;;;;5059469;28;20139;-76
2021/10/24 09:10:48;;;;;;;1.05;0.50;;;19.20;95.10;;;;;;5062060;28;20052;-76
2021/10/24 09:13:19;;;;;;;1.60;0.52;;;19.30;94.60;;;;;;5041883;28;20050;-75
2021/10/24 09:15:54;;;;;;;1.65;0.60;;;19.40;94.40;;;;;;5056856;28;20045;-76
2021/10/24 09:18:28;;;;;;;2.67;0.73;;;19.40;94.20;;;;;;5045145;28;20052;-75
2021/10/24 09:21:20;;;;;;;2.55;0.50;;;19.40;93.80;;;;;;5062184;28;20139;-75
2021/10/24 09:24:10;;;;;;;2.55;1.00;;;19.40;94.10;;;;;;5060327;28;20045;-75
2021/10/24 09:26:40;;;;;;;1.45;0.80;;;19.50;94.10;;;;;;5058345;28;20053;-74
2021/10/24 09:29:13;;;;;;;1.17;0.60;;;19.50;93.70;;;;;;5053617;28;20123;-75
2021/10/24 09:31:43;;;;;;;4.75;0.90;;;19.50;94.50;;;;;;5059507;28;20044;-74
2021/10/24 09:34:14;;;;;;;0.93;0.52;;;19.60;93.60;;;;;;5044232;28;20458;-74
2021/10/24 09:36:50;;;;;;;1.25;0.70;;;19.60;93.20;;;;;;5061364;28;20605;-75
2021/10/24 09:39:51;;;;;;;5.97;0.90;;;19.60;93.00;;;;;;5038211;28;20518;-74
2021/10/24 09:42:21;;;;;;;2.70;0.70;;;19.70;93.00;;;;;;5063228;28;20119;-74
2021/10/24 09:45:05;;;;;;;2.83;0.80;;;19.70;93.00;;;;;;5063427;28;20421;-74
2021/10/24 09:47:34;;;;;;;1.92;0.55;;;19.60;93.10;;;;;;5059800;28;20566;-75
2021/10/24 09:50:03;;;;;;;1.58;0.60;;;19.60;93.10;;;;;;5050718;28;20467;-74
2021/10/24 09:52:32;;;;;;;1.88;0.63;;;19.60;93.50;;;;;;5063740;28;20045;-74
2021/10/24 09:55:16;;;;;;;1.45;0.60;;;19.70;93.60;;;;;;5076374;28;20131;-75
2021/10/24 09:57:44;;;;;;;1.23;0.65;;;19.80;93.00;;;;;;5062796;28;20041;-75
2021/10/24 10:00:14;;;;;;;3.00;0.52;;;19.80;92.90;;;;;;5061410;28;20784;-78
2021/10/24 10:02:43;;;;;;;1.08;0.80;;;19.90;92.70;;;;;;5060800;28;20084;-76
2021/10/24 10:05:11;;;;;;;1.70;0.80;;;19.90;92.70;;;;;;5060290;28;20631;-74
2021/10/24 10:07:39;;;;;;;1.45;0.95;;;19.90;93.30;;;;;;5061322;28;20044;-75
2021/10/24 10:10:07;;;;;;;1.35;0.95;;;20.00;93.10;;;;;;5058340;28;20421;-76
2021/10/24 10:12:38;;;;;;;1.40;0.70;;;20.00;92.90;;;;;;5058139;28;20055;-76
2021/10/24 10:15:07;;;;;;;2.22;0.70;;;20.00;93.30;;;;;;5059658;28;20387;-76
2021/10/24 10:17:38;;;;;;;1.95;0.70;;;20.00;93.40;;;;;;5061794;28;20029;-77
2021/10/24 10:20:21;;;;;;;2.33;0.80;;;20.10;93.40;;;;;;5062850;28;20461;-77
2021/10/24 10:23:03;;;;;;;1.13;0.60;;;20.10;93.60;;;;;;5058020;28;20128;-77
2021/10/24 10:25:34;;;;;;;4.70;0.95;;;20.10;93.70;;;;;;5059795;28;20051;-77
2021/10/24 10:28:02;;;;;;;1.45;0.50;;;20.20;93.20;;;;;;5060325;28;20075;-76
2021/10/24 10:30:38;;;;;;;2.22;0.80;;;20.20;93.10;;;;;;5040980;28;20036;-77
2021/10/24 10:33:30;;;;;;;6.25;1.15;;;20.20;93.30;;;;;;5059956;28;20046;-77
2021/10/24 10:36:00;;;;;;;2.42;0.90;;;20.30;93.60;;;;;;5060945;28;20044;-76
2021/10/24 10:38:33;;;;;;;2.10;0.90;;;20.30;93.10;;;;;;5060067;28;20036;-77
2021/10/24 10:41:03;;;;;;;1.17;0.85;;;20.30;93.10;;;;;;5058149;28;20056;-77
2021/10/24 10:43:32;;;;;;;3.28;1.08;;;20.40;92.90;;;;;;5059298;28;20052;-76
2021/10/24 10:46:03;;;;;;;1.73;1.00;;;20.40;92.40;;;;;;5060654;28;20044;-77
2021/10/24 10:48:35;;;;;;;2.38;0.77;;;20.40;92.60;;;;;;5058901;28;20040;-77
2021/10/24 10:51:24;;;;;;;2.88;0.80;;;20.40;92.80;;;;;;5057958;28;20051;-77
2021/10/24 10:53:58;;;;;;;1.98;0.85;;;20.50;93.10;;;;;;5058713;28;20052;-77
2021/10/24 10:56:44;;;;;;;2.22;0.73;;;20.50;92.50;;;;;;5061005;28;20128;-77
2021/10/24 10:59:33;;;;;;;2.30;0.65;;;20.60;92.50;;;;;;5059379;28;20040;-76
2021/10/24 11:02:23;;;;;;;0.98;0.73;;;20.70;92.80;;;;;;5057192;28;20047;-77
2021/10/24 11:04:54;;;;;;;2.17;1.10;;;20.70;92.60;;;;;;5056764;28;20048;-77
2021/10/24 11:07:42;;;;;;;3.25;1.10;;;20.70;92.90;;;;;;5059418;28;20082;-77
2021/10/24 11:10:17;;;;;;;1.55;0.80;;;20.80;92.30;;;;;;5041110;28;20056;-76
2021/10/24 11:12:49;;;;;;;2.25;1.10;;;20.90;92.60;;;;;;5057719;28;20051;-77
2021/10/24 11:15:29;;;;;;;3.00;0.70;;;20.90;91.30;;;;;;5056836;28;20067;-77
2021/10/24 11:17:59;;;;;;;2.83;0.70;;;20.80;90.60;;;;;;5058919;28;20055;-75
2021/10/24 11:20:47;;;;;;;1.98;0.70;;;20.80;90.10;;;;;;5066586;28;20574;-75
2021/10/24 11:23:19;;;;;;;1.73;0.57;;;20.80;90.30;;;;;;5047327;28;20433;-75
2021/10/24 11:25:51;;;;;;;4.10;0.60;;;20.90;90.10;;;;;;5054419;28;20064;-76
2021/10/24 11:28:23;;;;;;;1.10;0.88;;;20.90;89.20;;;;;;5057528;28;20131;-76
2021/10/24 11:30:59;;;;;;;3.65;0.88;;;20.80;89.80;;;;;;5058859;28;20037;-77
2021/10/24 11:33:28;;;;;;;1.50;0.80;;;20.70;89.80;;;;;;5056395;28;20165;-78
2021/10/24 11:36:04;;;;;;;2.22;0.57;;;20.70;90.30;;;;;;5054687;28;20033;-78
2021/10/24 11:38:33;;;;;;;1.73;0.80;;;20.60;90.30;;;;;;5054482;28;20428;-77
2021/10/24 11:41:01;;;;;;;1.63;1.00;;;20.50;90.50;;;;;;5055966;28;20032;-77
2021/10/24 11:43:32;;;;;;;3.38;0.90;;;20.50;90.90;;;;;;5053361;28;20064;-78
2021/10/24 11:46:05;;;;;;;2.08;1.00;;;20.50;91.70;;;;;;5059662;28;20040;-77
2021/10/24 11:48:34;;;;;;;1.35;0.60;;;20.50;92.00;;;;;;5055822;28;20127;-77
2021/10/24 11:51:05;;;;;;;1.00;0.80;;;20.40;92.30;;;;;;5056548;28;20070;-77
2021/10/24 11:53:35;;;;;;;1.23;0.68;;;20.40;92.50;;;;;;5057063;28;20056;-77
2021/10/24 11:56:06;;;;;;;2.38;0.98;;;20.40;92.90;;;;;;5058505;28;20068;-78
2021/10/24 12:01:13;;;;;;;2.55;0.70;;;20.40;92.50;;;;;;5059104;28;20102;-76
2021/10/24 12:03:43;;;;;;;1.70;0.75;;;20.40;92.40;;;;;;5059044;28;20090;-77
2021/10/24 12:06:13;;;;;;;2.22;0.77;;;20.50;92.60;;;;;;5041616;28;20072;-77
2021/10/24 12:08:48;;;;;;;2.08;0.77;;;20.50;92.60;;;;;;5042987;28;20532;-77
2021/10/24 12:11:40;;;;;;;2.10;0.80;;;20.50;93.00;;;;;;5058663;28;20064;-77
2021/10/24 12:14:08;;;;;;;2.38;0.70;;;20.60;92.90;;;;;;5060188;28;20650;-77
2021/10/24 12:16:40;;;;;;;2.63;0.73;;;20.60;92.00;;;;;;5060758;28;20051;-77
2021/10/24 12:19:33;;;;;;;2.70;0.73;;;20.70;91.80;;;;;;5055268;28;20048;-76
2021/10/24 16:25:07;;;;;;;2.33;0.82;;;19.20;96.70;;;;;;5123806;27;20741;-79
2021/10/24 16:27:35;;;;;;;2.28;1.00;;;19.00;96.70;;;;;;5125551;27;20042;-77
2021/10/24 16:30:05;;;;;;;2.55;1.67;;;18.90;96.70;;;;;;5124648;27;20107;-77
2021/10/24 16:32:33;;;;;;;3.25;0.95;;;18.80;96.70;;;;;;5126147;27;20464;-79
2021/10/24 16:35:01;;;;;;;3.63;1.23;;;18.60;96.70;;;;;;5119633;27;20046;-82
2021/10/24 16:37:31;;;;;;;2.25;1.13;;;18.60;96.70;;;;;;5120415;27;20036;-77
2021/10/24 16:39:59;;;;;;;4.75;1.48;;;18.50;96.70;;;;;;5119819;27;20059;-77
2021/10/24 16:42:28;;;;;;;1.73;0.95;;;18.50;96.70;;;;;;5118968;27;20043;-78
2021/10/24 16:44:56;;;;;;;3.15;1.02;;;18.60;96.70;;;;;;5116571;27;20058;-78
2021/10/24 16:47:28;;;;;;;3.00;0.88;;;18.50;96.70;;;;;;5114918;27;20053;-77
2021/10/24 16:49:58;;;;;;;3.03;1.13;;;18.50;96.70;;;;;;5119601;27;20043;-78
2021/10/24 16:52:26;;;;;;;2.38;1.08;;;18.50;96.70;;;;;;5124438;27;20488;-78
2021/10/24 16:54:54;;;;;;;2.20;1.10;;;18.40;96.70;;;;;;5118728;27;20612;-77
2021/10/24 16:57:22;;;;;;;2.08;1.08;;;18.40;96.70;;;;;;5114744;27;20044;-78
2021/10/24 16:59:51;;;;;;;3.97;1.02;;;18.40;96.70;;;;;;5098732;27;20147;-78
2021/10/24 17:02:19;;;;;;;3.22;1.23;;;18.40;96.70;;;;;;5123778;27;20046;-78
2021/10/24 17:04:48;;;;;;;1.05;0.80;;;18.40;96.70;;;;;;5121748;27;20250;-77
2021/10/24 17:07:16;;;;;;;4.18;1.10;;;18.30;96.70;;;;;;5126714;27;20118;-78
2021/10/24 17:09:44;;;;;;;3.33;1.30;;;18.30;96.70;;;;;;5120352;27;20042;-78
2021/10/24 17:12:12;;;;;;;1.65;1.00;;;18.30;96.70;;;;;;5117503;27;20557;-78
2021/10/24 17:14:40;;;;;;;2.20;1.80;;;18.20;96.70;;;;;;5114841;27;20035;-78
2021/10/24 17:17:10;;;;;;;3.60;1.70;;;18.20;96.70;;;;;;5119581;27;20266;-78
2021/10/24 17:19:37;;;;;;;4.38;2.20;;;18.20;96.70;;;;;;5119188;27;20047;-78